Terminal Aerodrome Forecast
Issued by NWS

Home | Current Version | Previous Version | Graphics & Text | Print | Product List | Glossary On
Versions: 1 2 3 4 5 6 7 8 9 10 11 12 13 14 15 16 17 18 19 20 21 22 23 24 25 26 27
538
FTUS43 KABR 201734
TAFATY
TAF
KATY 201734Z 2018/2118 21011KT 2SM BR OVC002
      TEMPO 2018/2020 1/2SM FG BKN008
     FM202000 30015G24KT P6SM VCSH BKN010
     FM202200 31014G23KT P6SM SCT025
     FM210100 28011KT P6SM FEW150
     FM210500 23005KT 5SM BR FEW200
     FM211400 19010KT P6SM FEW200
     FM211600 20011KT P6SM FEW250=

USA.gov is the U.S. government's official web portal to all federal, state and local government web resources and services.